Time;durP1;ratioP1;P1;durP2;ratioP2;P2;SDS_P1;SDS_P2;PMS_P1;PMS_P2;Temp;Humidity;BMP_temperature;BMP_pressure;BME280_temperature;BME280_humidity;BME280_pressure;Samples;Min_cycle;Max_cycle;Signal;HPM_P1;HPM_P2
2022/04/13 00:00:09;;;;;;;6.40;4.10;;;;;;;13.65;42.14;95054.66;5070523;28;20113;-67
2022/04/13 00:02:35;;;;;;;5.03;3.90;;;;;;;13.98;42.54;95124.28;5071411;28;20052;-67
2022/04/13 00:05:00;;;;;;;5.63;3.92;;;;;;;13.33;42.85;95027.50;5074479;28;20060;-67
2022/04/13 00:07:26;;;;;;;5.10;4.05;;;;;;;13.48;42.73;95044.88;5074385;28;20020;-67
2022/04/13 00:09:51;;;;;;;6.30;4.00;;;;;;;13.76;42.87;95088.69;5074419;28;20105;-67
2022/04/13 00:12:17;;;;;;;6.45;3.85;;;;;;;13.72;43.01;95087.78;5073901;28;20354;-67
2022/04/13 00:14:42;;;;;;;5.85;4.10;;;;;;;13.96;43.22;95121.91;5074317;28;20056;-67
2022/04/13 00:17:08;;;;;;;7.65;4.85;;;;;;;12.53;43.30;94922.53;5074310;28;20028;-67
2022/04/13 00:19:33;;;;;;;12.00;4.60;;;;;;;13.08;45.29;95063.13;5074058;28;20177;-67
2022/04/13 00:21:59;;;;;;;5.28;4.32;;;;;;;13.52;44.48;95115.28;5073612;28;20039;-67
2022/04/13 00:24:25;;;;;;;5.20;3.88;;;;;;;13.37;44.28;95081.09;5074074;28;20031;-67
2022/04/13 00:26:51;;;;;;;8.65;4.75;;;;;;;13.20;44.29;95050.63;5074017;28;20020;-66
2022/04/13 00:29:16;;;;;;;8.10;4.57;;;;;;;12.52;44.29;94963.66;5073924;28;20381;-66
2022/04/13 00:31:42;;;;;;;8.25;4.70;;;;;;;13.24;44.38;95082.88;5073718;28;20033;-66
2022/04/13 00:34:07;;;;;;;6.25;4.38;;;;;;;12.21;44.41;94901.47;5074024;28;20465;-67
2022/04/13 00:36:33;;;;;;;8.73;4.72;;;;;;;12.92;44.51;95047.63;5074007;28;20028;-67
2022/04/13 00:38:58;;;;;;;10.07;5.15;;;;;;;13.46;45.06;95113.84;5073825;28;20024;-67
2022/04/13 00:41:23;;;;;;;9.75;4.93;;;;;;;13.09;45.09;95065.47;5073283;28;20027;-66
2022/04/13 00:44:03;;;;;;;6.72;4.30;;;;;;;13.01;45.12;95056.41;5073582;28;20024;-67
2022/04/13 00:46:29;;;;;;;6.50;4.30;;;;;;;13.05;45.12;95061.06;5073876;28;20448;-67
2022/04/13 00:48:54;;;;;;;6.95;4.80;;;;;;;13.33;45.46;95102.31;5073742;28;20064;-67
2022/04/13 00:51:20;;;;;;;8.73;4.57;;;;;;;12.84;45.09;95034.31;5073480;28;20037;-68
2022/04/13 00:53:46;;;;;;;8.50;5.28;;;;;;;12.99;45.49;95057.81;5073508;28;20099;-67
2022/04/13 00:56:15;;;;;;;14.18;5.15;;;;;;;13.12;45.49;95085.41;5073815;28;20024;-67
2022/04/13 00:58:43;;;;;;;9.07;4.78;;;;;;;13.15;45.71;95109.56;5073517;28;20036;-66
2022/04/13 01:01:09;;;;;;;6.90;4.70;;;;;;;13.29;46.05;95154.81;5073086;28;20024;-67
2022/04/13 01:03:36;;;;;;;8.52;4.43;;;;;;;13.01;46.15;95099.13;5073371;28;20087;-67
2022/04/13 01:06:01;;;;;;;8.25;4.57;;;;;;;12.86;46.83;95094.28;5073118;28;20035;-66
2022/04/13 01:08:28;;;;;;;8.45;5.20;;;;;;;13.00;47.05;95110.91;5073347;28;20024;-66
2022/04/13 01:10:54;;;;;;;5.97;4.75;;;;;;;13.08;46.49;95138.66;5038545;28;20025;-66
2022/04/13 01:13:20;;;;;;;6.13;4.70;;;;;;;13.07;46.49;95126.44;5072829;28;20036;-66
2022/04/13 01:15:46;;;;;;;10.35;5.50;;;;;;;13.12;46.62;95144.16;5072323;28;20025;-66
2022/04/13 01:18:13;;;;;;;8.63;4.75;;;;;;;13.04;47.23;95153.75;5073065;28;20027;-66
2022/04/13 01:20:48;;;;;;;10.82;4.50;;;;;;;12.54;47.39;95081.50;5072751;28;20024;-67
2022/04/13 01:23:14;;;;;;;5.07;3.85;;;;;;;12.26;47.44;95049.06;5073016;28;20020;-67
2022/04/13 01:25:47;;;;;;;6.80;4.05;;;;;;;12.86;46.95;95126.34;5073079;28;20025;-67
2022/04/13 01:28:12;;;;;;;6.32;4.00;;;;;;;12.78;47.22;95118.34;5073031;28;20063;-67
2022/04/13 01:30:38;;;;;;;4.50;4.10;;;;;;;12.12;46.81;95035.91;5072003;28;20130;-68
2022/04/13 01:33:04;;;;;;;5.93;4.50;;;;;;;12.45;47.26;95068.97;5072892;28;20111;-67
2022/04/13 01:35:29;;;;;;;6.72;3.95;;;;;;;12.16;47.01;95036.84;5072813;28;20153;-67
2022/04/13 01:37:55;;;;;;;4.97;3.88;;;;;;;12.85;47.65;95161.38;5072847;28;20053;-67
2022/04/13 01:40:20;;;;;;;6.20;4.75;;;;;;;12.25;48.12;95090.97;5072329;28;20113;-66
2022/04/13 01:42:47;;;;;;;6.78;3.92;;;;;;;11.12;47.74;94911.66;5072627;28;20028;-68
2022/04/13 01:45:19;;;;;;;6.07;4.15;;;;;;;12.85;47.56;95161.38;5072833;28;20473;-68
2022/04/13 01:47:45;;;;;;;;;;;;;;;12.85;47.79;95167.47;5073260;28;20017;-67
2022/04/13 01:50:10;;;;;;;6.22;3.72;;;;;;;12.46;47.47;95102.53;5072093;28;20331;-67
2022/04/13 01:52:35;;;;;;;6.55;4.05;;;;;;;11.83;47.64;95031.25;5072222;28;20461;-67
2022/04/13 01:55:01;;;;;;;7.03;4.03;;;;;;;12.13;48.04;95061.47;5072540;28;20021;-67
2022/04/13 01:57:26;;;;;;;8.82;3.80;;;;;;;12.67;47.54;95145.34;5054599;28;20024;-67
2022/04/13 01:59:52;;;;;;;7.43;4.20;;;;;;;12.60;47.62;95149.63;5072249;28;20021;-67
2022/04/13 02:02:17;;;;;;;4.63;4.00;;;;;;;12.03;48.10;95040.47;5071568;28;20028;-67
2022/04/13 02:04:43;;;;;;;5.53;4.22;;;;;;;12.27;47.64;95080.75;5072085;28;20020;-66
2022/04/13 02:07:08;;;;;;;5.10;3.60;;;;;;;12.25;47.73;95061.63;5072279;28;20024;-67
2022/04/13 02:09:33;;;;;;;6.38;4.13;;;;;;;12.54;47.56;95102.84;5054120;28;20024;-66
2022/04/13 02:11:59;;;;;;;8.45;4.47;;;;;;;12.58;47.72;95109.13;5071723;28;20047;-66
2022/04/13 02:14:24;;;;;;;9.00;4.47;;;;;;;11.89;47.41;95027.31;5071727;28;20040;-67
2022/04/13 02:16:50;;;;;;;5.22;3.95;;;;;;;12.30;47.55;95085.47;5071990;28;20036;-66
2022/04/13 02:19:15;;;;;;;6.40;4.20;;;;;;;12.04;47.52;95048.16;5071820;28;20024;-66
2022/04/13 02:21:40;;;;;;;9.55;4.30;;;;;;;11.74;48.13;95047.19;5071524;28;20513;-66
2022/04/13 02:24:07;;;;;;;6.07;4.47;;;;;;;12.56;48.35;95159.34;5071905;28;20488;-67
2022/04/13 02:26:33;;;;;;;6.13;4.38;;;;;;;11.95;48.52;95072.16;5071469;28;20032;-66
2022/04/13 02:28:59;;;;;;;4.68;3.90;;;;;;;11.87;48.17;95056.94;5053867;28;20024;-67
2022/04/13 02:31:24;;;;;;;6.45;4.85;;;;;;;12.37;48.15;95130.31;5071299;28;20496;-67
2022/04/13 02:33:54;;;;;;;5.65;4.32;;;;;;;11.86;48.30;95058.03;5071602;28;20111;-66
2022/04/13 02:36:20;;;;;;;6.85;4.43;;;;;;;11.88;48.63;95068.41;5070944;28;20029;-67
2022/04/13 02:38:45;;;;;;;6.32;4.75;;;;;;;12.33;48.75;95150.72;5070562;28;20108;-66
2022/04/13 02:41:10;;;;;;;8.95;5.07;;;;;;;11.56;48.78;95038.38;5071127;28;20100;-66
2022/04/13 02:43:36;;;;;;;6.55;4.53;;;;;;;11.81;48.98;95068.81;5053435;28;20089;-67
2022/04/13 02:46:01;;;;;;;6.45;4.18;;;;;;;12.04;49.00;95114.03;5071549;28;20062;-66
2022/04/13 02:48:27;;;;;;;7.88;5.05;;;;;;;11.64;48.55;95066.16;5071229;28;20028;-65
2022/04/13 02:50:52;;;;;;;7.95;4.90;;;;;;;11.65;49.05;95097.00;5070840;28;20686;-66
2022/04/13 02:53:22;;;;;;;9.10;4.45;;;;;;;11.44;48.97;95048.88;5053280;28;20024;-67
2022/04/13 02:55:48;;;;;;;6.90;5.20;;;;;;;11.23;49.22;95035.38;5053431;28;20111;-66
2022/04/13 02:58:13;;;;;;;7.75;4.93;;;;;;;11.58;49.82;95092.16;5071321;28;20127;-65
2022/04/13 03:00:39;;;;;;;11.25;4.63;;;;;;;11.90;49.48;95151.47;5070736;28;20176;-65
2022/04/13 03:03:04;;;;;;;8.38;5.18;;;;;;;11.20;50.45;95078.56;5071197;28;20040;-66
2022/04/13 03:05:30;;;;;;;7.82;4.97;;;;;;;11.53;50.28;95102.19;5071303;28;20422;-67
2022/04/13 03:07:56;;;;;;;9.05;5.10;;;;;;;11.81;50.72;95150.66;5053497;28;20028;-66
2022/04/13 03:10:21;;;;;;;8.75;5.03;;;;;;;11.85;50.14;95147.09;5052692;28;20464;-68
2022/04/13 03:12:47;;;;;;;10.70;4.63;;;;;;;11.88;50.23;95146.47;5071086;28;20040;-67
2022/04/13 03:15:12;;;;;;;11.15;5.63;;;;;;;11.59;49.41;95109.69;5071094;28;20032;-66
2022/04/13 03:17:38;;;;;;;6.85;5.40;;;;;;;11.89;50.04;95149.91;5071036;28;20422;-66
2022/04/13 03:20:04;;;;;;;9.48;5.70;;;;;;;11.84;50.06;95150.06;5070885;28;20086;-65
2022/04/13 03:22:30;;;;;;;7.57;4.45;;;;;;;11.49;49.66;95087.91;5053262;28;20122;-66
2022/04/13 03:24:55;;;;;;;5.80;4.65;;;;;;;11.52;50.07;95111.28;5071005;28;20047;-67
2022/04/13 03:27:20;;;;;;;11.00;5.32;;;;;;;11.38;50.10;95092.72;5070965;28;20388;-67
2022/04/13 03:29:46;;;;;;;7.95;5.03;;;;;;;11.28;50.67;95085.81;5053074;28;20048;-67
2022/04/13 03:32:12;;;;;;;10.18;4.90;;;;;;;11.66;50.27;95154.53;5070583;28;20020;-66
2022/04/13 03:34:37;;;;;;;5.60;4.40;;;;;;;11.58;50.71;95136.66;5071063;28;20031;-66
2022/04/13 03:37:03;;;;;;;9.82;4.47;;;;;;;11.57;50.35;95148.41;5053027;28;20017;-66
2022/04/13 03:39:30;;;;;;;8.50;4.93;;;;;;;11.36;50.76;95114.34;5074998;28;20025;-66
2022/04/13 03:41:56;;;;;;;9.52;4.72;;;;;;;11.31;51.42;95103.03;5056685;28;20120;-66
2022/04/13 03:44:22;;;;;;;5.45;4.68;;;;;;;11.29;50.67;95129.97;5056893;28;20025;-67
2022/04/13 03:46:48;;;;;;;8.77;4.68;;;;;;;11.56;51.37;95157.47;5074835;28;20016;-67
2022/04/13 03:49:14;;;;;;;11.82;5.55;;;;;;;11.05;51.36;95119.69;5074948;28;20035;-67
2022/04/13 03:51:39;;;;;;;10.27;4.88;;;;;;;10.22;52.78;95078.69;5074319;28;20469;-67
2022/04/13 03:54:05;;;;;;;8.18;5.25;;;;;;;11.25;51.73;95141.56;5074694;28;20029;-66
2022/04/13 03:56:30;;;;;;;9.75;5.05;;;;;;;11.04;51.63;95093.41;5074844;28;20052;-65
2022/04/13 03:59:00;;;;;;;10.25;4.63;;;;;;;10.82;52.01;95124.31;5074557;28;20091;-66
2022/04/13 04:01:26;;;;;;;7.82;3.97;;;;;;;11.18;51.56;95152.66;5074025;28;20024;-66
2022/04/13 04:03:52;;;;;;;4.63;4.13;;;;;;;10.12;52.35;95058.44;5074731;28;20021;-67
2022/04/13 04:06:18;;;;;;;9.63;4.47;;;;;;;11.05;51.50;95140.22;5074661;28;20059;-67
2022/04/13 04:08:43;;;;;;;5.22;4.43;;;;;;;11.26;51.43;95165.22;5074572;28;20031;-68
2022/04/13 04:11:09;;;;;;;8.25;4.05;;;;;;;10.68;51.50;95091.66;5074296;28;20043;-66
2022/04/13 04:13:34;;;;;;;4.28;3.88;;;;;;;11.01;51.35;95110.00;5074419;28;20484;-67
2022/04/13 04:16:00;;;;;;;8.25;4.00;;;;;;;11.40;51.02;95154.44;5074370;28;20023;-68
2022/04/13 04:18:26;;;;;;;8.48;4.40;;;;;;;11.56;50.53;95171.59;5074227;28;20033;-67
2022/04/13 04:20:51;;;;;;;7.38;4.22;;;;;;;11.52;50.84;95154.66;5073932;28;20032;-67
2022/04/13 04:23:17;;;;;;;7.00;4.28;;;;;;;11.67;50.29;95183.53;5073938;28;20036;-67
2022/04/13 04:25:42;;;;;;;7.43;4.20;;;;;;;11.45;50.39;95154.31;5074113;28;20048;-67
2022/04/13 04:28:10;;;;;;;7.82;4.53;;;;;;;11.74;50.59;95168.97;5074265;28;20031;-67
2022/04/13 04:30:40;;;;;;;12.43;4.05;;;;;;;11.80;50.30;95189.06;5073297;28;20459;-66
2022/04/13 04:33:06;;;;;;;4.55;3.63;;;;;;;11.64;49.92;95156.72;5074227;28;20032;-66
2022/04/13 04:35:32;;;;;;;6.50;4.18;;;;;;;11.82;50.07;95179.66;5073972;28;20020;-67
2022/04/13 04:37:59;;;;;;;6.78;4.18;;;;;;;11.63;50.25;95153.28;5073807;28;20025;-66
2022/04/13 04:40:25;;;;;;;8.85;4.63;;;;;;;11.13;50.08;95079.03;5073348;28;20094;-67
2022/04/13 04:42:51;;;;;;;5.55;4.50;;;;;;;11.49;50.02;95163.25;5073575;28;20028;-67
2022/04/13 04:45:19;;;;;;;5.15;4.20;;;;;;;10.78;50.12;95024.88;5073646;28;20478;-68
2022/04/13 04:47:48;;;;;;;7.00;4.15;;;;;;;11.80;50.46;95173.84;5073742;28;20032;-66
2022/04/13 04:50:14;;;;;;;7.07;4.45;;;;;;;11.19;49.90;95093.75;5073095;28;20017;-67
2022/04/13 04:52:41;;;;;;;10.18;5.10;;;;;;;10.74;49.56;95013.28;5073530;28;20023;-67
2022/04/13 04:55:08;;;;;;;6.82;4.85;;;;;;;11.45;49.66;95112.47;5073512;28;20155;-66
2022/04/13 04:57:33;;;;;;;7.60;4.22;;;;;;;10.87;49.86;95012.41;5073417;28;20636;-66
2022/04/13 04:59:59;;;;;;;8.88;4.90;;;;;;;12.22;49.37;95204.38;5073339;28;20114;-66
2022/04/13 05:02:25;;;;;;;6.70;3.88;;;;;;;12.36;49.74;95216.78;5072944;28;20046;-66
2022/04/13 05:04:50;;;;;;;11.57;5.38;;;;;;;11.92;49.13;95122.63;5073453;28;20024;-67
2022/04/13 05:07:16;;;;;;;7.20;4.20;;;;;;;12.51;49.29;95194.19;5073183;28;20111;-66
2022/04/13 05:09:42;;;;;;;18.85;4.57;;;;;;;11.96;48.65;95086.25;5073083;28;20025;-67
2022/04/13 05:12:08;;;;;;;9.45;3.83;;;;;;;12.08;48.27;95142.41;5072891;28;20024;-66
2022/04/13 05:14:34;;;;;;;9.00;4.10;;;;;;;12.51;49.04;95215.53;5073261;28;20035;-66
2022/04/13 05:16:59;;;;;;;9.25;4.50;;;;;;;12.33;48.71;95135.50;5073216;28;20020;-67
2022/04/13 05:19:24;;;;;;;9.82;4.13;;;;;;;12.94;48.33;95202.94;5073160;28;20461;-67
2022/04/13 05:21:50;;;;;;;5.78;4.28;;;;;;;12.61;47.85;95108.50;5072401;28;20028;-66
2022/04/13 05:24:15;;;;;;;15.45;5.40;;;;;;;12.99;47.67;95143.25;5072873;28;20043;-68
2022/04/13 05:26:41;;;;;;;26.48;5.38;;;;;;;13.52;47.17;95216.81;5073109;28;20082;-67
2022/04/13 05:29:06;;;;;;;12.80;4.10;;;;;;;13.63;47.05;95203.88;5054704;28;20029;-67
2022/04/13 05:31:32;;;;;;;5.65;3.25;;;;;;;12.89;46.59;95072.28;5072502;28;20116;-66
2022/04/13 05:33:58;;;;;;;4.30;3.20;;;;;;;13.59;46.39;95160.97;5072632;28;20059;-64
2022/04/13 05:36:23;;;;;;;7.38;3.55;;;;;;;13.87;45.92;95222.81;5072777;28;20027;-64
2022/04/13 05:38:49;;;;;;;4.88;3.40;;;;;;;13.61;46.08;95160.63;5072713;28;20024;-66
2022/04/13 05:41:14;;;;;;;6.97;3.22;;;;;;;13.95;46.07;95219.28;5072556;28;20442;-71
2022/04/13 05:43:40;;;;;;;11.95;4.25;;;;;;;13.24;45.99;95094.31;5054512;28;20097;-76
2022/04/13 05:46:05;;;;;;;8.52;3.45;;;;;;;13.48;45.53;95122.34;5054358;28;20078;-65
2022/04/13 05:48:31;;;;;;;5.80;3.22;;;;;;;12.93;45.80;95056.41;5072073;28;20063;-64
2022/04/13 05:50:58;;;;;;;6.35;3.53;;;;;;;13.13;45.57;95062.94;5071980;28;20381;-64
2022/04/13 05:53:24;;;;;;;5.90;3.40;;;;;;;12.96;45.43;95055.78;5072354;28;20025;-65
2022/04/13 05:55:55;;;;;;;6.97;3.05;;;;;;;13.97;45.45;95186.84;5072448;28;20021;-64
2022/04/13 05:58:26;;;;;;;5.27;3.23;;;;;;;13.91;45.56;95177.47;5072308;28;20048;-64
2022/04/13 06:00:52;;;;;;;4.78;3.20;;;;;;;13.40;44.92;95091.88;5071614;28;20029;-65
2022/04/13 06:03:18;;;;;;;7.40;3.03;;;;;;;14.28;45.41;95207.94;5071224;28;20033;-63
2022/04/13 06:05:45;;;;;;;11.35;3.53;;;;;;;13.14;44.66;95013.75;5072231;28;20485;-63
2022/04/13 06:08:10;;;;;;;12.82;3.72;;;;;;;13.07;45.24;95056.22;5072228;28;20021;-63
2022/04/13 06:10:36;;;;;;;8.00;3.55;;;;;;;14.52;45.11;95229.50;5071547;28;20028;-63
2022/04/13 06:13:01;;;;;;;15.10;3.67;;;;;;;13.59;44.76;95085.34;5071765;28;20355;-66
2022/04/13 06:15:28;;;;;;;13.65;3.83;;;;;;;13.97;44.40;95118.13;5072116;28;20092;-66
2022/04/13 06:17:55;;;;;;;5.63;3.65;;;;;;;15.07;43.91;95271.25;5071167;28;20032;-65
2022/04/13 06:20:20;;;;;;;8.93;3.80;;;;;;;15.19;43.82;95269.75;5072079;28;20035;-64
2022/04/13 06:22:46;;;;;;;13.07;4.07;;;;;;;15.34;43.77;95271.81;5071845;28;20410;-65
2022/04/13 06:25:12;;;;;;;12.65;3.60;;;;;;;15.45;43.57;95245.38;5071831;28;20063;-66
2022/04/13 06:27:40;;;;;;;14.98;3.70;;;;;;;15.20;43.08;95193.59;5071654;28;20055;-65
2022/04/13 06:30:06;;;;;;;21.85;4.13;;;;;;;15.32;43.10;95196.31;5070963;28;20389;-66
2022/04/13 06:32:38;;;;;;;11.57;4.70;;;;;;;15.66;42.83;95230.03;5070613;28;20029;-66
2022/04/13 06:35:05;;;;;;;13.50;4.53;;;;;;;15.95;42.43;95242.44;5071498;28;20020;-67
2022/04/13 06:37:31;;;;;;;10.23;3.97;;;;;;;15.96;42.59;95219.84;5071585;28;20029;-66
2022/04/13 06:39:56;;;;;;;9.13;4.55;;;;;;;15.94;42.28;95189.13;5053495;28;20036;-66
2022/04/13 06:42:22;;;;;;;12.77;4.53;;;;;;;15.77;41.99;95145.34;5070965;28;20103;-66
2022/04/13 06:44:54;;;;;;;10.27;3.92;;;;;;;16.44;41.76;95225.53;5071377;28;20063;-66
2022/04/13 06:47:19;;;;;;;18.77;4.72;;;;;;;16.74;41.14;95247.53;5070444;28;20021;-66
2022/04/13 06:49:47;;;;;;;10.85;4.00;;;;;;;16.83;40.84;95237.41;5071345;28;20036;-68
2022/04/13 06:52:13;;;;;;;17.70;5.47;;;;;;;17.12;40.79;95252.44;5070759;28;20025;-68
2022/04/13 06:54:40;;;;;;;10.43;4.45;;;;;;;17.08;40.40;95214.69;5071154;28;20035;-66
2022/04/13 06:57:05;;;;;;;11.48;4.78;;;;;;;17.20;40.03;95197.75;5071409;28;20492;-65
2022/04/13 06:59:30;;;;;;;10.88;4.97;;;;;;;17.51;39.49;95220.44;5071274;28;20021;-66
2022/04/13 07:01:56;;;;;;;11.57;5.07;;;;;;;17.27;39.16;95148.75;5069921;28;20028;-66
2022/04/13 07:04:21;;;;;;;8.30;5.03;;;;;;;18.01;38.80;95246.66;5071357;28;20055;-66
2022/04/13 07:06:47;;;;;;;7.28;4.18;;;;;;;17.89;38.54;95196.41;5071181;28;20082;-67
2022/04/13 07:09:12;;;;;;;10.75;4.05;;;;;;;17.82;38.21;95168.56;5071062;28;20047;-66
2022/04/13 07:11:37;;;;;;;9.90;4.65;;;;;;;18.30;37.64;95225.78;5070509;28;20013;-66
2022/04/13 07:14:03;;;;;;;9.75;4.82;;;;;;;18.16;37.48;95215.47;5070611;28;20428;-67
2022/04/13 07:16:28;;;;;;;8.57;4.50;;;;;;;18.02;37.64;95170.19;5071274;28;20070;-66
2022/04/13 07:18:53;;;;;;;7.93;4.82;;;;;;;18.47;37.18;95243.47;5070048;28;20389;-65
2022/04/13 07:21:19;;;;;;;7.32;4.05;;;;;;;18.67;37.12;95231.59;5070481;28;20028;-66
2022/04/13 07:23:44;;;;;;;8.18;4.18;;;;;;;18.53;37.14;95175.50;5071005;28;20488;-65
2022/04/13 07:26:11;;;;;;;5.65;3.60;;;;;;;19.17;36.82;95246.88;5071070;28;20545;-66
2022/04/13 07:28:37;;;;;;;4.68;4.20;;;;;;;19.25;36.65;95238.94;5071058;28;20055;-66
2022/04/13 07:31:02;;;;;;;7.60;3.78;;;;;;;19.50;36.73;95240.19;5070547;28;20457;-67
2022/04/13 07:33:28;;;;;;;7.45;3.90;;;;;;;19.41;36.36;95196.47;5070121;28;20513;-65
2022/04/13 07:35:53;;;;;;;9.35;3.90;;;;;;;19.87;36.13;95250.47;5070899;28;20066;-65
2022/04/13 07:38:19;;;;;;;5.20;3.33;;;;;;;20.04;35.75;95244.59;5070684;28;20436;-65
2022/04/13 07:40:45;;;;;;;4.75;3.38;;;;;;;19.54;35.38;95143.88;5070843;28;20668;-66
2022/04/13 07:43:10;;;;;;;6.68;3.63;;;;;;;19.18;34.82;95089.34;5070751;28;20056;-66
2022/04/13 07:45:36;;;;;;;8.23;3.75;;;;;;;20.35;35.08;95245.44;5052864;28;20024;-65
2022/04/13 07:48:02;;;;;;;6.55;3.33;;;;;;;20.13;34.61;95184.94;5069980;28;20028;-65
2022/04/13 07:50:27;;;;;;;6.75;3.10;;;;;;;20.32;34.61;95213.72;5070438;28;20074;-65
2022/04/13 07:52:52;;;;;;;5.70;3.53;;;;;;;20.00;34.22;95203.25;5070728;28;20017;-65
2022/04/13 07:55:18;;;;;;;7.90;3.53;;;;;;;20.54;34.34;95233.78;5070618;28;20477;-66
2022/04/13 07:57:43;;;;;;;7.70;4.13;;;;;;;20.21;34.13;95154.94;5070560;28;20087;-67
2022/04/13 08:00:10;;;;;;;6.32;3.17;;;;;;;20.63;34.21;95226.19;5070390;28;20430;-67
2022/04/13 08:02:38;;;;;;;3.72;2.88;;;;;;;20.06;33.76;95147.00;5069813;28;20107;-67
2022/04/13 08:05:04;;;;;;;4.32;3.17;;;;;;;20.97;33.77;95245.91;5070701;28;20106;-67
2022/04/13 08:07:29;;;;;;;8.20;3.00;;;;;;;20.17;33.26;95107.44;5070821;28;20480;-67
2022/04/13 08:09:55;;;;;;;5.85;2.88;;;;;;;20.85;33.09;95195.56;5070541;28;20401;-68
2022/04/13 08:12:20;;;;;;;5.40;2.60;;;;;;;20.71;33.20;95179.94;5070153;28;20115;-69
2022/04/13 08:14:46;;;;;;;7.20;2.72;;;;;;;21.03;32.95;95198.47;5070649;28;20028;-69
2022/04/13 08:17:14;;;;;;;4.10;3.33;;;;;;;20.44;32.63;95108.16;5070480;28;20466;-68
2022/04/13 08:19:40;;;;;;;4.65;2.70;;;;;;;20.38;32.40;95069.91;5069462;28;20098;-68
2022/04/13 08:22:06;;;;;;;6.80;3.25;;;;;;;20.44;32.31;95113.56;5052135;28;20504;-68
2022/04/13 08:24:31;;;;;;;4.50;2.85;;;;;;;20.90;32.28;95141.16;5072999;28;20074;-68
2022/04/13 08:27:00;;;;;;;5.88;2.80;;;;;;;21.37;32.11;95214.72;5074061;28;20461;-68
2022/04/13 08:29:25;;;;;;;7.40;2.55;;;;;;;20.96;31.77;95084.81;5073657;28;20078;-67
2022/04/13 08:31:51;;;;;;;6.32;2.72;;;;;;;22.10;31.13;95258.31;5073593;28;20040;-68
2022/04/13 08:34:16;;;;;;;4.65;2.53;;;;;;;20.97;31.99;95145.88;5073008;28;20032;-67
2022/04/13 08:36:42;;;;;;;8.98;2.70;;;;;;;20.68;31.82;95145.56;5073429;28;20103;-68
2022/04/13 08:39:14;;;;;;;5.03;2.72;;;;;;;21.41;31.80;95245.28;5073963;28;20032;-67
2022/04/13 08:42:01;;;;;;;7.00;2.47;;;;;;;22.12;31.66;95266.88;5073385;28;20029;-67
2022/04/13 08:44:50;;;;;;;5.75;2.88;;;;;;;22.49;31.34;95275.66;5073641;28;20062;-66
2022/04/13 08:47:26;;;;;;;3.83;2.38;;;;;;;22.21;30.75;95264.63;5073726;28;20024;-66
2022/04/13 08:49:53;;;;;;;2.97;2.15;;;;;;;21.62;30.56;95112.88;5072927;28;20048;-67
2022/04/13 08:52:23;;;;;;;4.55;2.78;;;;;;;21.93;30.37;95181.97;5073446;28;20099;-67
2022/04/13 08:55:11;;;;;;;5.80;3.00;;;;;;;22.97;30.52;95280.25;5074060;28;20492;-67
2022/04/13 08:57:45;;;;;;;5.30;2.88;;;;;;;22.02;29.56;95130.97;5073780;28;20309;-67
2022/04/13 09:00:16;;;;;;;7.72;2.90;;;;;;;23.08;29.91;95248.50;5073631;28;20548;-67
2022/04/13 09:02:50;;;;;;;6.03;2.80;;;;;;;22.64;30.45;95275.78;5073416;28;20040;-67
2022/04/13 09:05:18;;;;;;;5.90;2.65;;;;;;;22.28;30.08;95137.34;5072761;28;20130;-67
2022/04/13 09:07:49;;;;;;;6.68;2.70;;;;;;;23.03;29.77;95259.72;5073120;28;20105;-67
2022/04/13 09:10:20;;;;;;;5.72;3.03;;;;;;;22.06;30.17;95191.34;5071534;28;20085;-68
2022/04/13 09:12:49;;;;;;;3.67;2.63;;;;;;;20.96;32.35;95217.31;5072995;28;20031;-67
2022/04/13 09:15:14;;;;;;;4.18;3.00;;;;;;;20.80;31.89;95100.50;5072994;28;20031;-67
2022/04/13 09:17:40;;;;;;;4.82;2.80;;;;;;;22.51;30.79;95267.16;5072993;28;20024;-67
2022/04/13 09:20:06;;;;;;;7.30;3.00;;;;;;;21.03;31.35;95125.44;5071955;28;20229;-67
2022/04/13 09:22:32;;;;;;;4.40;2.70;;;;;;;22.63;30.36;95223.50;5054894;28;20439;-67
2022/04/13 09:24:58;;;;;;;3.63;2.40;;;;;;;22.64;29.48;95176.22;5072986;28;20020;-67
2022/04/13 09:27:24;;;;;;;4.65;2.05;;;;;;;23.34;28.80;95245.53;5073136;28;20020;-68
2022/04/13 09:29:50;;;;;;;5.72;2.10;;;;;;;23.67;28.23;95270.84;5073005;28;20024;-67
2022/04/13 09:32:18;;;;;;;3.90;2.50;;;;;;;23.83;28.16;95273.19;5054887;28;20116;-67
2022/04/13 09:34:43;;;;;;;4.18;2.65;;;;;;;23.14;27.75;95127.63;5072290;28;20477;-68
2022/04/13 09:37:10;;;;;;;3.67;2.30;;;;;;;23.59;27.77;95141.59;5072874;28;20025;-68
2022/04/13 09:39:36;;;;;;;5.20;2.38;;;;;;;23.53;27.60;95216.47;5072489;28;20032;-68
2022/04/13 09:42:03;;;;;;;5.82;2.50;;;;;;;22.88;27.65;95079.06;5072138;28;20100;-67
2022/04/13 09:44:32;;;;;;;7.82;2.30;;;;;;;23.26;27.08;95115.59;5072626;28;20373;-67
2022/04/13 09:47:11;;;;;;;5.75;2.60;;;;;;;24.34;27.25;95272.84;5072457;28;20078;-68
2022/04/13 09:49:47;;;;;;;11.00;3.90;;;;;;;23.66;27.02;95130.03;5071446;28;20029;-68
2022/04/13 09:52:15;;;;;;;12.77;4.80;;;;;;;24.01;27.51;95241.41;5071970;28;20029;-69
2022/04/13 09:54:48;;;;;;;7.57;4.00;;;;;;;24.43;27.06;95248.00;5072533;28;20531;-68
2022/04/13 09:57:21;;;;;;;7.15;4.93;;;;;;;23.25;27.04;95090.41;5072471;28;20039;-69
2022/04/13 09:59:54;;;;;;;7.88;5.50;;;;;;;23.15;28.49;95194.28;5072359;28;20058;-68
2022/04/13 10:02:43;;;;;;;10.25;6.07;;;;;;;22.47;29.96;95185.84;5071494;28;20523;-68
2022/04/13 10:05:21;;;;;;;17.55;6.97;;;;;;;23.05;27.81;95129.91;5054368;28;20032;-67
2022/04/13 10:08:08;;;;;;;14.65;6.35;;;;;;;24.27;27.18;95272.06;5071910;28;20051;-68
2022/04/13 10:10:34;;;;;;;15.75;6.38;;;;;;;23.07;28.13;95176.41;5071768;28;20104;-68
2022/04/13 10:13:00;;;;;;;18.83;6.35;;;;;;;24.10;28.04;95274.38;5071996;28;20021;-67
2022/04/13 10:15:25;;;;;;;10.70;5.78;;;;;;;24.36;27.77;95275.19;5070989;28;20568;-66
2022/04/13 10:17:57;;;;;;;9.88;6.18;;;;;;;23.76;27.69;95157.19;5071694;28;20025;-66
2022/04/13 10:20:23;;;;;;;14.55;5.93;;;;;;;23.81;27.31;95110.63;5071483;28;20025;-66
2022/04/13 10:23:02;;;;;;;17.73;6.43;;;;;;;23.91;27.29;95138.94;5071848;28;20031;-67
2022/04/13 10:25:28;;;;;;;13.43;5.63;;;;;;;23.83;28.03;95172.69;5071792;28;20082;-67
2022/04/13 10:27:56;;;;;;;11.55;5.05;;;;;;;24.94;27.80;95278.63;5071571;28;20103;-67
2022/04/13 10:30:29;;;;;;;7.78;5.35;;;;;;;24.45;28.17;95270.13;5070219;28;20493;-67
2022/04/13 10:33:14;;;;;;;10.68;5.30;;;;;;;23.92;27.87;95110.59;5071416;28;20112;-67
2022/04/13 10:35:41;;;;;;;14.93;5.97;;;;;;;24.78;28.18;95285.25;5071387;28;20141;-67
2022/04/13 10:38:07;;;;;;;10.45;4.82;;;;;;;23.60;28.30;95100.50;5071480;28;20032;-67
2022/04/13 10:40:40;;;;;;;9.18;4.57;;;;;;;23.64;27.88;95146.69;5070782;28;20110;-67
2022/04/13 10:43:08;;;;;;;14.27;4.43;;;;;;;23.42;28.14;95142.38;5053108;28;20497;-67
2022/04/13 10:45:38;;;;;;;11.70;4.10;;;;;;;24.01;27.68;95124.56;5070453;28;20064;-68
2022/04/13 10:48:05;;;;;;;5.63;4.13;;;;;;;25.17;27.83;95259.13;5071266;28;20085;-67
2022/04/13 10:50:59;;;;;;;12.25;4.60;;;;;;;24.46;27.64;95257.31;5071066;28;20027;-68
2022/04/13 10:53:29;;;;;;;9.77;4.65;;;;;;;22.13;30.67;95155.44;5071080;28;20025;-67
2022/04/13 10:56:01;;;;;;;7.18;3.60;;;;;;;23.65;29.06;95199.84;5071468;28;20027;-68
2022/04/13 10:58:45;;;;;;;10.25;3.97;;;;;;;25.28;27.48;95247.00;5071345;28;20028;-68
2022/04/13 11:01:13;;;;;;;9.55;4.25;;;;;;;23.85;27.35;95092.38;5069974;28;20032;-67
2022/04/13 11:03:39;;;;;;;9.38;4.35;;;;;;;24.57;26.91;95128.34;5070961;28;20056;-68
2022/04/13 11:06:08;;;;;;;8.35;4.00;;;;;;;23.14;28.24;95133.03;5071824;28;20025;-67
2022/04/13 11:08:46;;;;;;;5.63;3.50;;;;;;;24.89;27.47;95247.91;5071140;28;20477;-68
2022/04/13 11:11:18;;;;;;;6.32;3.70;;;;;;;24.78;27.32;95198.19;5070724;28;20025;-70
2022/04/13 11:13:48;;;;;;;8.48;4.13;;;;;;;24.74;27.83;95210.25;5071189;28;20036;-68
2022/04/13 11:16:19;;;;;;;8.25;4.20;;;;;;;25.27;26.79;95240.00;5052180;28;20459;-69
2022/04/13 11:19:04;;;;;;;4.82;4.32;;;;;;;25.24;27.57;95242.78;5070977;28;20028;-68
2022/04/13 11:21:29;;;;;;;6.15;4.82;;;;;;;24.62;27.38;95146.97;5070562;28;20020;-67
2022/04/13 11:23:55;;;;;;;5.55;4.50;;;;;;;25.64;26.70;95252.25;5070906;28;20090;-68
2022/04/13 11:26:33;;;;;;;4.25;3.40;;;;;;;26.08;25.70;95248.13;5052531;28;20029;-68
2022/04/13 11:29:21;;;;;;;6.72;5.03;;;;;;;24.95;26.22;95133.22;5070744;28;20032;-67
2022/04/13 11:32:02;;;;;;;5.38;4.18;;;;;;;24.51;27.74;95243.31;5069323;28;20429;-67